createdAt,value
2019-04-29T00:01:46.525Z,55.17
2019-04-29T00:04:18.511Z,55.59
2019-04-29T00:06:50.770Z,56.68
2019-04-29T00:09:23.073Z,57.96
2019-04-29T00:11:54.719Z,58.87
2019-04-29T00:14:28.115Z,59.22
2019-04-29T00:17:06.334Z,59.38
2019-04-29T00:19:42.695Z,59.65
2019-04-29T00:22:14.588Z,59.74
2019-04-29T00:24:46.725Z,59.65
2019-04-29T00:27:18.778Z,59.74
2019-04-29T00:29:50.656Z,59.75
2019-04-29T00:32:25.479Z,57.62
2019-04-29T00:34:57.352Z,56.63
2019-04-29T00:37:39.869Z,56.38
2019-04-29T00:40:29.863Z,55.97
2019-04-29T00:43:09.399Z,56.45
2019-04-29T00:45:41.468Z,57.25
2019-04-29T00:48:13.108Z,57.24
2019-04-29T00:50:44.770Z,56.45
2019-04-29T00:53:16.750Z,55.82
2019-04-29T00:55:49.843Z,55.33
2019-04-29T00:58:21.998Z,55.17
2019-04-29T01:00:54.062Z,55.12
2019-04-29T01:03:26.043Z,55.12
2019-04-29T01:05:57.775Z,55.64
2019-04-29T01:08:29.872Z,55.53
2019-04-29T01:11:01.530Z,55.40
2019-04-29T01:13:33.294Z,55.53
2019-04-29T01:16:04.949Z,56.16
2019-04-29T01:18:36.813Z,56.95
2019-04-29T01:21:08.625Z,56.66
2019-04-29T01:23:40.542Z,56.72
2019-04-29T01:26:16.837Z,56.69
2019-04-29T01:28:56.456Z,56.84
2019-04-29T01:31:30.097Z,56.92
2019-04-29T01:34:03.419Z,56.97
2019-04-29T01:36:37.148Z,56.58
2019-04-29T01:39:11.656Z,56.38
2019-04-29T01:41:44.969Z,56.40
2019-04-29T01:44:18.592Z,55.93
2019-04-29T01:46:50.766Z,55.47
2019-04-29T01:49:22.525Z,55.65
2019-04-29T01:51:54.497Z,54.78
2019-04-29T01:54:26.546Z,54.92
2019-04-29T01:56:58.513Z,55.17
2019-04-29T01:59:30.269Z,55.52
2019-04-29T02:02:02.455Z,55.69
2019-04-29T02:04:34.590Z,55.86
2019-04-29T02:07:06.695Z,55.98
2019-04-29T02:09:40.299Z,56.31
2019-04-29T02:12:12.369Z,56.93
2019-04-29T02:14:44.639Z,57.82
2019-04-29T02:17:16.724Z,58.17
2019-04-29T02:19:48.551Z,58.38
2019-04-29T02:22:28.411Z,58.54
2019-04-29T02:25:02.125Z,58.40
2019-04-29T02:27:34.007Z,58.70
2019-04-29T02:30:07.587Z,58.55
2019-04-29T02:32:39.545Z,58.94
2019-04-29T02:35:11.715Z,59.73
2019-04-29T02:37:45.220Z,59.83
2019-04-29T02:40:34.714Z,59.63
2019-04-29T02:43:08.419Z,59.41
2019-04-29T02:45:40.485Z,59.21
2019-04-29T02:48:12.458Z,59.11
2019-04-29T02:50:44.145Z,58.79
2019-04-29T02:53:15.676Z,58.76
2019-04-29T02:55:49.482Z,58.44
2019-04-29T02:58:23.174Z,58.28
2019-04-29T03:01:13.603Z,58.46
2019-04-29T03:03:47.397Z,58.88
2019-04-29T03:06:19.492Z,59.81
2019-04-29T03:08:51.230Z,60.85
2019-04-29T03:11:24.425Z,61.34
2019-04-29T03:13:56.698Z,61.83
2019-04-29T03:16:28.681Z,62.57
2019-04-29T03:19:05.244Z,63.08
2019-04-29T03:21:38.708Z,63.08
2019-04-29T03:24:10.498Z,63.33
2019-04-29T03:26:42.348Z,63.87
2019-04-29T03:29:23.581Z,64.22
2019-04-29T03:31:56.651Z,64.50
2019-04-29T03:34:28.415Z,65.19
2019-04-29T03:37:00.065Z,65.89
2019-04-29T03:39:32.035Z,66.33
2019-04-29T03:42:07.275Z,66.67
2019-04-29T03:44:37.380Z,66.95
2019-04-29T03:47:09.775Z,67.11
2019-04-29T03:49:41.643Z,67.10
2019-04-29T03:52:13.811Z,67.07
2019-04-29T03:54:45.884Z,66.80
2019-04-29T03:57:18.658Z,66.33
2019-04-29T03:59:50.733Z,66.01
2019-04-29T04:02:24.438Z,64.91
2019-04-29T04:05:07.057Z,64.03
2019-04-29T04:07:40.647Z,63.44
2019-04-29T04:10:13.248Z,62.89
2019-04-29T04:12:44.990Z,62.06
2019-04-29T04:15:17.284Z,61.49
2019-04-29T04:18:06.041Z,60.76
2019-04-29T04:20:38.313Z,60.36
2019-04-29T04:23:10.685Z,59.55
2019-04-29T04:25:42.762Z,58.95
2019-04-29T04:28:14.702Z,58.69
2019-04-29T04:30:46.564Z,58.35
2019-04-29T04:33:18.790Z,58.20
2019-04-29T04:35:50.871Z,58.33
2019-04-29T04:38:22.689Z,58.23
2019-04-29T04:41:05.594Z,57.89
2019-04-29T04:43:37.588Z,57.77
2019-04-29T04:46:10.366Z,57.19
2019-04-29T04:48:42.317Z,56.96
2019-04-29T04:51:14.314Z,57.38
2019-04-29T04:53:46.979Z,57.47
2019-04-29T04:56:19.133Z,56.98
2019-04-29T04:58:50.808Z,56.42
2019-04-29T05:01:22.883Z,56.21
2019-04-29T05:03:54.844Z,55.93
2019-04-29T05:06:26.792Z,55.13
2019-04-29T05:08:59.096Z,54.40
2019-04-29T05:11:31.081Z,54.16
2019-04-29T05:14:02.685Z,53.94
2019-04-29T05:16:34.758Z,53.66
2019-04-29T05:19:06.742Z,53.50
2019-04-29T05:21:38.828Z,53.28
2019-04-29T05:24:10.673Z,53.00
2019-04-29T05:26:42.825Z,53.04
2019-04-29T05:29:14.910Z,52.42
2019-04-29T05:31:46.754Z,51.89
2019-04-29T05:34:19.558Z,51.53
2019-04-29T05:36:52.851Z,51.33
2019-04-29T05:39:26.565Z,51.09
2019-04-29T05:41:59.009Z,50.76
2019-04-29T05:44:33.452Z,50.60
2019-04-29T05:47:17.838Z,50.35
2019-04-29T05:50:07.197Z,50.20
2019-04-29T05:52:57.234Z,50.24
2019-04-29T05:55:29.251Z,50.59
2019-04-29T05:58:12.794Z,50.39
2019-04-29T06:00:46.380Z,50.09
2019-04-29T06:03:18.238Z,50.03
2019-04-29T06:05:50.048Z,50.03
2019-04-29T06:08:22.070Z,50.13
2019-04-29T06:10:53.747Z,49.80
2019-04-29T06:13:25.915Z,49.51
2019-04-29T06:15:57.756Z,49.64
2019-04-29T06:18:29.745Z,49.58
2019-04-29T06:21:08.934Z,49.28
2019-04-29T06:23:35.142Z,49.03
2019-04-29T06:26:07.283Z,48.67
2019-04-29T06:28:40.085Z,48.18
2019-04-29T06:31:12.230Z,47.93
2019-04-29T06:33:44.296Z,46.99
2019-04-29T06:36:15.947Z,46.20
2019-04-29T06:38:48.032Z,45.94
2019-04-29T06:41:21.294Z,45.07
2019-04-29T06:44:00.637Z,44.63
2019-04-29T06:46:30.725Z,44.64
2019-04-29T06:49:10.091Z,45.36
2019-04-29T06:51:36.242Z,44.90
2019-04-29T06:54:08.109Z,45.15
2019-04-29T06:56:39.988Z,44.36
2019-04-29T06:59:13.881Z,43.35
2019-04-29T07:01:45.468Z,44.57
2019-04-29T07:04:17.526Z,44.39
2019-04-29T07:06:57.069Z,42.78
2019-04-29T07:09:22.791Z,43.52
2019-04-29T07:12:01.116Z,42.75
2019-04-29T07:14:32.799Z,43.02
2019-04-29T07:17:05.729Z,42.30
2019-04-29T07:19:35.954Z,43.63
2019-04-29T07:22:07.936Z,44.26
2019-04-29T07:24:39.887Z,43.09
2019-04-29T07:27:11.868Z,42.70
2019-04-29T07:29:44.858Z,44.20
2019-04-29T07:32:16.821Z,43.01
2019-04-29T07:34:48.770Z,43.10
2019-04-29T07:37:20.649Z,44.47
2019-04-29T07:39:52.413Z,45.12
2019-04-29T07:42:30.385Z,45.47
2019-04-29T07:45:15.885Z,46.40
2019-04-29T07:47:56.697Z,47.15
2019-04-29T07:50:26.603Z,46.89
2019-04-29T07:52:57.226Z,47.41
2019-04-29T07:55:30.718Z,47.30
2019-04-29T07:58:02.594Z,46.87
2019-04-29T08:00:35.635Z,45.99
2019-04-29T08:03:08.365Z,46.97
2019-04-29T08:05:40.646Z,47.17
2019-04-29T08:08:16.731Z,44.91
2019-04-29T08:10:56.168Z,45.81
2019-04-29T08:13:21.984Z,45.92
2019-04-29T08:15:53.405Z,44.92
2019-04-29T08:18:25.278Z,46.17
2019-04-29T08:20:57.047Z,46.99
2019-04-29T08:23:33.057Z,46.72
2019-04-29T08:26:04.115Z,46.00
2019-04-29T08:28:35.705Z,47.16
2019-04-29T08:31:08.253Z,47.35
2019-04-29T08:33:42.415Z,47.58
2019-04-29T08:36:13.241Z,47.86
2019-04-29T08:38:44.902Z,48.19
2019-04-29T08:41:21.536Z,49.36
2019-04-29T08:43:52.523Z,49.47
2019-04-29T08:46:30.096Z,49.92
2019-04-29T08:49:06.043Z,51.04
2019-04-29T08:51:35.410Z,52.06
2019-04-29T08:54:07.384Z,52.44
2019-04-29T08:56:42.543Z,52.68
2019-04-29T08:59:12.694Z,52.93
2019-04-29T09:01:44.733Z,53.25
2019-04-29T09:04:16.491Z,53.62
2019-04-29T09:06:48.616Z,53.73
2019-04-29T09:09:28.983Z,54.12
2019-04-29T09:11:54.070Z,54.23
2019-04-29T09:14:25.922Z,54.49
2019-04-29T09:16:57.883Z,54.60
2019-04-29T09:19:30.055Z,55.04
2019-04-29T09:22:03.533Z,55.79
2019-04-29T09:24:37.257Z,55.84
2019-04-29T09:27:17.003Z,56.24
2019-04-29T09:29:54.197Z,56.20
2019-04-29T09:32:23.629Z,56.16
2019-04-29T09:34:55.648Z,56.31
2019-04-29T09:37:28.872Z,56.89
2019-04-29T09:40:00.926Z,57.29
2019-04-29T09:42:50.212Z,57.83
2019-04-29T09:45:39.760Z,58.13
2019-04-29T09:48:11.791Z,57.98
2019-04-29T09:50:43.484Z,58.55
2019-04-29T09:53:15.366Z,58.44
2019-04-29T09:55:48.549Z,57.24
2019-04-29T09:58:20.216Z,56.72
2019-04-29T10:01:13.861Z,55.31
2019-04-29T10:04:02.837Z,53.68
2019-04-29T10:06:39.014Z,53.44
2019-04-29T10:09:11.679Z,52.23
2019-04-29T10:11:43.861Z,51.21
2019-04-29T10:14:16.035Z,50.50
2019-04-29T10:17:05.814Z,50.17
2019-04-29T10:19:54.571Z,50.14
2019-04-29T10:22:26.539Z,50.51
2019-04-29T10:24:58.300Z,50.55
2019-04-29T10:27:30.575Z,51.27
2019-04-29T10:30:02.438Z,51.46
2019-04-29T10:32:37.852Z,51.86
2019-04-29T10:35:10.704Z,52.14
2019-04-29T10:37:42.720Z,52.10
2019-04-29T10:40:28.223Z,52.23
2019-04-29T10:43:04.382Z,51.82
2019-04-29T10:45:43.817Z,52.71
2019-04-29T10:48:17.321Z,52.84
2019-04-29T10:50:52.125Z,53.49
2019-04-29T10:53:23.033Z,53.09
2019-04-29T10:55:55.045Z,53.63
2019-04-29T10:58:31.185Z,54.25
2019-04-29T11:01:41.688Z,54.27
2019-04-29T11:04:14.792Z,54.41
2019-04-29T11:06:46.853Z,54.62
2019-04-29T11:09:22.899Z,54.87
2019-04-29T11:11:54.552Z,55.55
2019-04-29T11:14:26.639Z,56.11
2019-04-29T11:16:58.604Z,55.97
2019-04-29T11:19:30.362Z,55.42
2019-04-29T11:22:03.311Z,55.70
2019-04-29T11:24:39.931Z,56.52
2019-04-29T11:27:13.462Z,57.09
2019-04-29T11:29:45.498Z,57.11
2019-04-29T11:32:24.783Z,56.88
2019-04-29T11:35:06.191Z,56.48
2019-04-29T11:37:38.184Z,56.06
2019-04-29T11:40:10.335Z,56.03
2019-04-29T11:42:42.212Z,55.16
2019-04-29T11:45:14.164Z,55.42
2019-04-29T11:47:46.349Z,55.23
2019-04-29T11:50:27.048Z,54.75
2019-04-29T11:52:59.290Z,55.50
2019-04-29T11:55:31.336Z,56.08
2019-04-29T11:58:14.051Z,56.00
2019-04-29T12:01:08.581Z,57.05
2019-04-29T12:03:42.630Z,57.24
2019-04-29T12:06:16.361Z,57.19
2019-04-29T12:08:53.239Z,56.64
2019-04-29T12:11:22.991Z,56.05
2019-04-29T12:14:08.796Z,55.78
2019-04-29T12:16:42.284Z,54.84
2019-04-29T12:19:17.116Z,55.42
2019-04-29T12:21:49.768Z,53.98
2019-04-29T12:24:21.440Z,53.63
2019-04-29T12:26:53.485Z,53.28
2019-04-29T12:29:25.609Z,53.53
2019-04-29T12:32:02.020Z,53.17
2019-04-29T12:34:54.199Z,51.47
2019-04-29T12:37:40.374Z,52.01
2019-04-29T12:40:30.561Z,53.02
2019-04-29T12:43:20.224Z,51.98
2019-04-29T12:45:54.077Z,53.98
2019-04-29T12:48:26.257Z,53.66
2019-04-29T12:50:58.293Z,53.34
2019-04-29T12:53:30.441Z,53.04
2019-04-29T12:56:02.527Z,53.64
2019-04-29T12:58:34.397Z,53.78
2019-04-29T13:01:20.108Z,54.30
2019-04-29T13:04:10.738Z,55.52
2019-04-29T13:06:50.986Z,56.00
2019-04-29T13:09:34.996Z,55.94
2019-04-29T13:12:19.130Z,56.40
2019-04-29T13:15:01.817Z,56.53
2019-04-29T13:17:26.471Z,57.36
2019-04-29T13:20:02.553Z,57.89
2019-04-29T13:22:35.200Z,57.31
2019-04-29T13:25:08.805Z,57.38
2019-04-29T13:27:40.599Z,58.25
2019-04-29T13:30:16.239Z,58.11
2019-04-29T13:32:47.046Z,58.89
2019-04-29T13:35:19.224Z,59.05
2019-04-29T13:37:50.883Z,59.71
2019-04-29T13:40:22.948Z,60.49
2019-04-29T13:42:54.795Z,60.95
2019-04-29T13:45:34.666Z,60.80
2019-04-29T13:48:10.911Z,60.54
2019-04-29T13:50:47.373Z,61.25
2019-04-29T13:53:19.689Z,61.67
2019-04-29T13:56:09.910Z,62.08
2019-04-29T13:58:27.046Z,62.18
2019-04-29T14:01:20.506Z,62.41
2019-04-29T14:03:46.320Z,62.61
2019-04-29T14:06:18.663Z,62.15
2019-04-29T14:08:49.316Z,62.50
2019-04-29T14:11:21.869Z,62.99
2019-04-29T14:13:56.084Z,63.04
2019-04-29T14:16:28.250Z,62.35
2019-04-29T14:19:00.672Z,62.75
2019-04-29T14:21:32.575Z,63.37
2019-04-29T14:24:04.253Z,63.86
2019-04-29T14:26:37.091Z,64.20
2019-04-29T14:29:10.128Z,64.40
2019-04-29T14:31:42.194Z,64.71
2019-04-29T14:34:34.966Z,65.25
2019-04-29T14:37:21.425Z,65.83
2019-04-29T14:39:39.599Z,66.36
2019-04-29T14:42:30.273Z,66.11
2019-04-29T14:45:07.288Z,66.37
2019-04-29T14:47:52.870Z,66.34
2019-04-29T14:50:24.940Z,66.43
2019-04-29T14:52:57.109Z,66.10
2019-04-29T14:55:35.143Z,65.84
2019-04-29T14:58:06.989Z,65.96
2019-04-29T15:00:50.949Z,66.24
2019-04-29T15:03:24.806Z,66.87
2019-04-29T15:05:56.819Z,67.02
2019-04-29T15:08:32.070Z,66.96
2019-04-29T15:11:04.094Z,66.15
2019-04-29T15:13:35.931Z,64.80
2019-04-29T15:16:14.011Z,64.31
2019-04-29T15:18:50.325Z,63.70
2019-04-29T15:21:42.552Z,63.34
2019-04-29T15:24:13.634Z,63.60
2019-04-29T15:26:45.798Z,63.38
2019-04-29T15:29:20.323Z,64.04
2019-04-29T15:32:11.218Z,64.79
2019-04-29T15:34:43.935Z,65.75
2019-04-29T15:37:16.384Z,66.32
2019-04-29T15:39:48.367Z,66.94
2019-04-29T15:42:20.094Z,67.51
2019-04-29T15:44:57.028Z,67.86
2019-04-29T15:47:31.298Z,68.46
2019-04-29T15:50:17.392Z,68.77
2019-04-29T15:52:35.547Z,69.29
2019-04-29T15:55:07.408Z,69.70
2019-04-29T15:57:39.870Z,69.77
2019-04-29T16:00:21.269Z,70.30
2019-04-29T16:02:46.185Z,70.58
2019-04-29T16:05:54.042Z,70.97
2019-04-29T16:08:30.547Z,71.31
2019-04-29T16:11:40.177Z,71.62
2019-04-29T16:14:20.845Z,71.92
2019-04-29T16:16:52.925Z,72.11
2019-04-29T16:19:24.591Z,72.03
2019-04-29T16:21:58.192Z,72.21
2019-04-29T16:24:38.517Z,72.47
2019-04-29T16:27:10.240Z,72.93
2019-04-29T16:29:46.051Z,73.22
2019-04-29T16:32:30.114Z,73.64
2019-04-29T16:35:02.383Z,73.85
2019-04-29T16:37:33.978Z,73.99
2019-04-29T16:40:08.139Z,73.85
2019-04-29T16:42:53.639Z,74.09
2019-04-29T16:45:44.202Z,74.18
2019-04-29T16:48:17.233Z,74.24
2019-04-29T16:50:50.525Z,74.36
2019-04-29T16:53:40.725Z,74.56
2019-04-29T16:56:35.318Z,74.96
2019-04-29T16:59:17.979Z,74.93
2019-04-29T17:02:09.976Z,74.97
2019-04-29T17:04:46.134Z,75.37
2019-04-29T17:07:19.326Z,75.61
2019-04-29T17:09:59.079Z,75.73
2019-04-29T17:12:36.239Z,75.99
2019-04-29T17:15:23.829Z,76.12
2019-04-29T17:17:42.225Z,76.22
2019-04-29T17:20:14.923Z,76.21
2019-04-29T17:22:46.680Z,76.33
2019-04-29T17:25:18.910Z,76.46
2019-04-29T17:28:11.798Z,76.50
2019-04-29T17:30:48.522Z,76.63
2019-04-29T17:33:28.031Z,76.75
2019-04-29T17:35:58.046Z,76.95
2019-04-29T17:38:30.399Z,77.03
2019-04-29T17:41:02.385Z,76.98
2019-04-29T17:43:42.943Z,76.88
2019-04-29T17:46:32.225Z,77.03
2019-04-29T17:49:22.150Z,77.20
2019-04-29T17:52:01.439Z,77.35
2019-04-29T17:54:32.793Z,77.28
2019-04-29T17:57:25.611Z,77.21
2019-04-29T18:00:00.578Z,77.48
2019-04-29T18:02:52.454Z,77.54
2019-04-29T18:05:26.910Z,77.54
2019-04-29T18:08:08.736Z,77.44
2019-04-29T18:10:48.360Z,77.38
2019-04-29T18:13:24.042Z,77.41
2019-04-29T18:16:01.639Z,77.03
2019-04-29T18:18:30.525Z,76.99
2019-04-29T18:21:06.483Z,76.97
2019-04-29T18:23:47.005Z,76.90
2019-04-29T18:26:23.108Z,76.91
2019-04-29T18:28:56.877Z,76.88
2019-04-29T18:31:31.766Z,76.87
2019-04-29T18:34:05.580Z,77.00
2019-04-29T18:36:38.144Z,77.19
2019-04-29T18:39:11.633Z,77.39
2019-04-29T18:41:44.809Z,77.49
2019-04-29T18:44:19.600Z,77.47
2019-04-29T18:46:54.078Z,77.54
2019-04-29T18:49:27.663Z,77.75
2019-04-29T18:52:02.269Z,77.96
2019-04-29T18:54:33.366Z,78.08
2019-04-29T18:57:05.959Z,78.15
2019-04-29T18:59:38.105Z,78.06
2019-04-29T19:02:09.970Z,77.85
2019-04-29T19:04:48.519Z,77.72
2019-04-29T19:07:17.068Z,77.80
2019-04-29T19:09:48.808Z,77.54
2019-04-29T19:12:21.116Z,77.62
2019-04-29T19:14:53.267Z,77.62
2019-04-29T19:17:25.767Z,77.79
2019-04-29T19:19:57.691Z,77.78
2019-04-29T19:22:29.757Z,77.93
2019-04-29T19:25:01.738Z,78.23
2019-04-29T19:27:37.107Z,78.29
2019-04-29T19:30:09.086Z,78.49
2019-04-29T19:32:41.407Z,78.56
2019-04-29T19:35:16.801Z,78.36
2019-04-29T19:37:48.632Z,78.38
2019-04-29T19:40:20.902Z,78.54
2019-04-29T19:42:52.855Z,78.50
2019-04-29T19:45:25.021Z,78.46
2019-04-29T19:47:56.781Z,78.38
2019-04-29T19:50:28.965Z,78.34
2019-04-29T19:53:05.037Z,78.36
2019-04-29T19:55:43.976Z,78.32
2019-04-29T19:58:11.804Z,78.30
2019-04-29T20:00:41.970Z,78.41
2019-04-29T20:03:22.789Z,78.39
2019-04-29T20:05:49.835Z,78.33
2019-04-29T20:08:41.334Z,78.54
2019-04-29T20:11:01.020Z,78.35
2019-04-29T20:13:31.729Z,78.37
2019-04-29T20:16:24.853Z,78.35
2019-04-29T20:19:01.848Z,78.52
2019-04-29T20:21:35.950Z,78.49
2019-04-29T20:24:09.793Z,78.59
2019-04-29T20:26:43.949Z,78.58
2019-04-29T20:29:15.936Z,78.59
2019-04-29T20:31:52.882Z,78.77
2019-04-29T20:34:24.630Z,79.04
2019-04-29T20:36:56.136Z,79.21
2019-04-29T20:39:28.375Z,79.38
2019-04-29T20:42:01.058Z,79.63
2019-04-29T20:44:36.597Z,79.93
2019-04-29T20:47:19.706Z,80.12
2019-04-29T20:49:41.151Z,80.24
2019-04-29T20:52:20.328Z,80.33
2019-04-29T20:54:56.199Z,80.32
2019-04-29T20:57:22.196Z,80.32
2019-04-29T20:59:55.092Z,80.39
2019-04-29T21:02:33.766Z,80.42
2019-04-29T21:05:01.508Z,80.48
2019-04-29T21:07:33.652Z,80.54
2019-04-29T21:10:08.569Z,80.60
2019-04-29T21:12:59.496Z,80.71
2019-04-29T21:15:36.301Z,80.87
2019-04-29T21:18:10.340Z,80.97
2019-04-29T21:20:41.724Z,80.98
2019-04-29T21:23:13.600Z,81.03
2019-04-29T21:25:46.077Z,80.98
2019-04-29T21:28:18.349Z,80.94
2019-04-29T21:30:50.112Z,80.93
2019-04-29T21:33:22.056Z,81.03
2019-04-29T21:35:58.852Z,81.07
2019-04-29T21:38:35.323Z,81.06
2019-04-29T21:41:15.498Z,81.13
2019-04-29T21:43:53.295Z,81.29
2019-04-29T21:46:27.821Z,81.45
2019-04-29T21:48:55.685Z,81.54
2019-04-29T21:51:27.517Z,81.71
2019-04-29T21:53:59.380Z,81.75
2019-04-29T21:56:31.468Z,81.86
2019-04-29T21:59:09.188Z,81.91
2019-04-29T22:01:38.061Z,82.01
2019-04-29T22:04:10.231Z,82.16
2019-04-29T22:06:42.177Z,82.15
2019-04-29T22:09:15.930Z,82.20
2019-04-29T22:11:48.885Z,82.40
2019-04-29T22:14:20.956Z,82.48
2019-04-29T22:16:54.362Z,82.58
2019-04-29T22:19:28.133Z,82.73
2019-04-29T22:22:01.501Z,82.90
2019-04-29T22:24:33.207Z,82.99
2019-04-29T22:27:08.167Z,83.07
2019-04-29T22:29:39.450Z,83.20
2019-04-29T22:32:14.675Z,83.42
2019-04-29T22:34:45.281Z,83.48
2019-04-29T22:37:17.749Z,83.57
2019-04-29T22:39:50.846Z,83.59
2019-04-29T22:42:30.050Z,83.68
2019-04-29T22:45:01.613Z,83.74
2019-04-29T22:47:33.476Z,83.89
2019-04-29T22:50:06.279Z,83.97
2019-04-29T22:52:38.446Z,84.16
2019-04-29T22:55:11.627Z,84.29
2019-04-29T22:57:44.914Z,84.44
2019-04-29T23:00:18.459Z,84.49
2019-04-29T23:02:50.193Z,84.60
2019-04-29T23:05:23.609Z,84.61
2019-04-29T23:07:57.064Z,84.62
2019-04-29T23:10:28.837Z,84.72
2019-04-29T23:13:00.816Z,84.92
2019-04-29T23:15:33.275Z,84.98
2019-04-29T23:18:06.184Z,85.00
2019-04-29T23:20:51.751Z,84.94
2019-04-29T23:23:33.756Z,84.82
2019-04-29T23:26:04.166Z,84.68
2019-04-29T23:28:36.774Z,84.64
2019-04-29T23:31:08.899Z,84.53
2019-04-29T23:33:40.891Z,84.43
2019-04-29T23:36:14.111Z,84.39
2019-04-29T23:38:46.379Z,84.30
2019-04-29T23:41:18.148Z,84.15
2019-04-29T23:43:49.999Z,84.07
2019-04-29T23:46:22.175Z,84.05
2019-04-29T23:48:56.491Z,84.05
2019-04-29T23:51:34.577Z,84.09
2019-04-29T23:54:05.855Z,84.10
2019-04-29T23:56:42.834Z,83.94
2019-04-29T23:59:29.632Z,83.94
